Time;durP1;ratioP1;P1;durP2;ratioP2;P2;SDS_P1;SDS_P2;PMS_P1;PMS_P2;Temp;Humidity;BMP_temperature;BMP_pressure;BME280_temperature;BME280_humidity;BME280_pressure;Samples;Min_cycle;Max_cycle;Signal;HPM_P1;HPM_P2
2021/01/13 05:54:41;;;;;;;5.43;1.20;;;14.60;53.50;;;;;;6275339;22;20019;-83
2021/01/13 05:57:08;;;;;;;6.97;1.05;;;14.60;53.60;;;;;;6252279;22;20011;-83
2021/01/13 05:59:37;;;;;;;9.38;1.10;;;14.70;53.90;;;;;;6282418;22;20105;-87
2021/01/13 06:13:22;;;;;;;9.02;0.93;;;14.80;54.70;;;;;;6295285;22;20018;-86
2021/01/13 06:16:04;;;;;;;7.80;1.13;;;14.90;55.20;;;;;;6254560;22;20069;-86
2021/01/13 06:19:24;;;;;;;5.88;1.00;;;15.00;55.70;;;;;;6258683;22;20086;-85
2021/01/13 06:22:31;;;;;;;11.18;1.33;;;15.00;56.20;;;;;;6106616;23;20076;-83
2021/01/13 06:28:56;;;;;;;11.98;2.30;;;15.10;56.60;;;;;;6130123;23;20371;-81
2021/01/13 06:31:55;;;;;;;11.85;2.22;;;15.20;57.10;;;;;;6115848;23;20018;-83
2021/01/13 06:34:29;;;;;;;10.88;2.47;;;15.30;58.00;;;;;;6253255;22;20066;-82
2021/01/13 06:37:04;;;;;;;8.27;1.40;;;15.30;58.40;;;;;;6282227;22;20068;-82
2021/01/13 06:39:33;;;;;;;9.15;1.63;;;15.30;58.40;;;;;;6257059;22;20015;-82
2021/01/13 06:42:00;;;;;;;6.75;1.58;;;15.40;58.40;;;;;;6257174;22;20015;-83
2021/01/13 06:44:40;;;;;;;7.70;1.42;;;15.40;58.20;;;;;;6258169;22;20281;-83
2021/01/13 06:47:07;;;;;;;7.18;1.33;;;15.50;58.10;;;;;;6257275;22;20301;-82
2021/01/13 06:49:41;;;;;;;10.15;1.30;;;15.50;57.80;;;;;;6256197;22;20015;-89
2021/01/13 06:56:08;;;;;;;6.10;1.10;;;15.60;56.60;;;;;;6309460;22;20014;-80
2021/01/13 06:58:36;;;;;;;4.80;1.08;;;15.60;57.10;;;;;;6310357;22;20015;-80
2021/01/13 07:01:03;;;;;;;7.53;1.23;;;15.60;57.30;;;;;;6320227;22;20061;-82
2021/01/13 07:03:41;;;;;;;8.85;1.50;;;15.70;57.50;;;;;;6319216;22;20370;-90
2021/01/13 07:06:55;;;;;;;17.58;1.55;;;15.80;57.40;;;;;;6257244;22;20073;-91
2021/01/13 07:09:21;;;;;;;10.73;1.63;;;15.90;57.10;;;;;;6289590;22;20011;-80
2021/01/13 07:11:50;;;;;;;13.15;1.33;;;15.90;57.10;;;;;;6293052;22;20022;-81
2021/01/13 07:14:17;;;;;;;12.55;1.42;;;16.00;57.20;;;;;;6320116;22;20473;-81
2021/01/13 07:16:43;;;;;;;16.40;1.67;;;16.00;57.00;;;;;;6311276;22;20033;-80
2021/01/13 07:19:10;;;;;;;6.72;1.35;;;16.00;56.80;;;;;;6322005;22;20148;-81
2021/01/13 07:21:40;;;;;;;8.80;1.65;;;16.10;56.80;;;;;;6295024;22;20007;-81
2021/01/13 07:24:11;;;;;;;12.95;1.80;;;16.10;56.60;;;;;;6295024;22;20148;-80
2021/01/13 07:26:39;;;;;;;12.82;1.88;;;16.10;56.50;;;;;;6321531;22;20088;-80
2021/01/13 07:29:05;;;;;;;13.65;2.13;;;16.20;56.50;;;;;;6321790;22;20019;-80
2021/01/13 07:31:33;;;;;;;10.02;1.45;;;16.20;56.40;;;;;;6294445;22;20354;-80
2021/01/13 07:34:08;;;;;;;14.48;1.55;;;16.20;56.40;;;;;;6321792;22;20011;-80
2021/01/13 07:36:38;;;;;;;9.25;1.48;;;16.30;56.30;;;;;;6284573;22;20007;-79
2021/01/13 07:39:08;;;;;;;12.75;1.50;;;16.30;56.30;;;;;;6322206;22;20026;-82
2021/01/13 07:41:52;;;;;;;9.63;1.70;;;16.40;56.10;;;;;;6312253;22;20011;-81
2021/01/13 07:44:39;;;;;;;10.88;1.95;;;16.40;56.10;;;;;;6294500;22;20011;-80
2021/01/13 07:47:25;;;;;;;8.30;1.25;;;16.40;56.10;;;;;;6321135;22;20057;-80
2021/01/13 07:50:05;;;;;;;8.60;1.58;;;16.50;55.90;;;;;;6295136;22;20011;-80
2021/01/13 07:52:37;;;;;;;9.82;2.00;;;16.50;55.60;;;;;;6294564;22;20011;-80
2021/01/13 07:55:04;;;;;;;9.95;2.03;;;16.50;55.30;;;;;;6294860;22;20072;-80
2021/01/13 07:57:45;;;;;;;7.68;1.52;;;16.50;55.20;;;;;;6311164;22;20068;-80
2021/01/13 08:00:23;;;;;;;10.02;1.85;;;16.50;55.10;;;;;;6311595;22;20412;-80
2021/01/13 08:03:22;;;;;;;10.77;1.75;;;16.40;55.10;;;;;;6311399;22;20038;-82
2021/01/13 08:06:15;;;;;;;13.55;1.95;;;16.40;55.30;;;;;;6284434;22;20014;-81
2021/01/13 08:09:07;;;;;;;11.38;1.70;;;16.40;55.30;;;;;;6283917;22;20086;-81
2021/01/13 08:12:01;;;;;;;14.30;1.98;;;16.40;55.40;;;;;;6303664;22;20084;-81
2021/01/13 08:14:41;;;;;;;9.80;1.95;;;16.50;55.20;;;;;;6294496;22;20019;-81
2021/01/13 08:17:23;;;;;;;15.45;1.80;;;16.50;55.10;;;;;;6294594;22;20007;-81
2021/01/13 08:20:11;;;;;;;8.35;1.52;;;16.50;55.10;;;;;;6321185;22;20447;-81
2021/01/13 08:22:39;;;;;;;7.78;1.08;;;16.50;55.00;;;;;;6257876;22;20106;-80
2021/01/13 08:25:18;;;;;;;9.07;1.65;;;16.60;55.10;;;;;;6320641;22;20015;-80
2021/01/13 08:27:56;;;;;;;7.47;1.25;;;16.60;54.80;;;;;;6320593;22;20076;-81
2021/01/13 08:30:27;;;;;;;7.22;1.33;;;16.60;54.60;;;;;;6311521;22;20061;-80
2021/01/13 08:32:56;;;;;;;10.43;1.52;;;16.70;54.50;;;;;;6294909;22;20392;-80
2021/01/13 08:35:36;;;;;;;8.95;1.17;;;16.70;54.30;;;;;;6311375;22;20039;-81
2021/01/13 08:38:10;;;;;;;5.15;1.08;;;16.70;54.30;;;;;;6310595;22;20045;-80
2021/01/13 08:40:37;;;;;;;7.63;0.80;;;16.70;54.20;;;;;;6310677;22;20014;-82
2021/01/13 08:43:14;;;;;;;5.50;1.27;;;16.70;54.30;;;;;;6283744;22;20140;-81
2021/01/13 08:45:42;;;;;;;13.70;1.52;;;16.70;54.50;;;;;;6293402;22;20007;-80
2021/01/13 08:48:12;;;;;;;11.77;1.60;;;16.60;54.60;;;;;;6283845;22;20138;-85
2021/01/13 08:50:40;;;;;;;12.27;1.40;;;16.70;54.10;;;;;;6257681;22;20015;-83
2021/01/13 08:53:07;;;;;;;9.60;1.48;;;16.70;53.70;;;;;;6258076;22;20088;-79
2021/01/13 08:55:34;;;;;;;11.27;1.50;;;16.60;54.00;;;;;;6310593;22;20296;-79
2021/01/13 08:58:07;;;;;;;12.60;1.67;;;16.60;54.30;;;;;;6283706;22;20015;-81
2021/01/13 09:00:35;;;;;;;8.38;1.38;;;16.60;54.50;;;;;;6320966;22;20084;-81
2021/01/13 09:03:03;;;;;;;8.82;1.67;;;16.60;54.60;;;;;;6283221;22;20022;-81
2021/01/13 09:05:31;;;;;;;10.45;1.20;;;16.60;54.50;;;;;;6282851;22;20411;-80
2021/01/13 09:07:59;;;;;;;8.13;1.35;;;16.60;54.40;;;;;;6320574;22;20023;-80
2021/01/13 09:10:47;;;;;;;4.47;1.08;;;16.60;54.40;;;;;;6285447;22;20008;-81
2021/01/13 09:13:35;;;;;;;11.07;1.60;;;16.60;54.40;;;;;;6320809;22;20038;-81
2021/01/13 09:16:22;;;;;;;7.38;1.05;;;16.60;54.40;;;;;;6310423;22;20010;-80
2021/01/13 09:19:06;;;;;;;9.70;1.70;;;16.60;54.40;;;;;;6293809;22;20011;-79
2021/01/13 09:21:35;;;;;;;7.30;1.30;;;16.50;54.30;;;;;;6283126;22;20343;-78
2021/01/13 09:24:02;;;;;;;13.57;1.50;;;16.50;54.40;;;;;;6321364;22;20096;-78
2021/01/13 09:26:33;;;;;;;14.13;2.00;;;16.50;54.60;;;;;;6283525;22;20007;-81
2021/01/13 09:29:08;;;;;;;12.60;1.63;;;16.50;54.70;;;;;;6283720;22;20351;-83
2021/01/13 09:31:35;;;;;;;16.33;1.52;;;16.60;54.80;;;;;;6283225;22;20088;-82
2021/01/13 09:34:01;;;;;;;10.50;1.38;;;16.60;54.90;;;;;;6283916;22;20018;-81
2021/01/13 09:36:57;;;;;;;12.25;1.20;;;16.50;54.90;;;;;;6283451;22;20458;-84
2021/01/13 09:39:35;;;;;;;10.05;1.30;;;16.60;54.90;;;;;;6270915;22;20084;-81
2021/01/13 09:42:06;;;;;;;8.93;1.42;;;16.60;55.10;;;;;;6293157;22;20412;-82
2021/01/13 09:44:34;;;;;;;7.63;1.08;;;16.60;55.10;;;;;;6283312;22;20017;-84
2021/01/13 09:47:20;;;;;;;5.95;0.60;;;16.60;55.10;;;;;;6257276;22;20043;-80
2021/01/13 09:49:49;;;;;;;14.65;1.98;;;16.60;54.90;;;;;;6319919;22;20035;-83
2021/01/13 09:52:15;;;;;;;8.43;0.98;;;16.60;55.20;;;;;;6282310;22;20022;-83
2021/01/13 09:54:49;;;;;;;13.45;1.35;;;16.60;55.30;;;;;;6292601;22;20007;-79
2021/01/13 09:57:18;;;;;;;16.65;2.35;;;16.60;55.70;;;;;;6309887;22;20007;-79
2021/01/13 10:00:08;;;;;;;22.17;2.05;;;16.60;55.70;;;;;;6257516;22;20011;-83
2021/01/13 10:02:34;;;;;;;14.57;1.60;;;16.60;55.30;;;;;;6257375;22;20086;-82
2021/01/13 10:05:00;;;;;;;10.48;1.70;;;16.50;55.70;;;;;;6258125;22;20412;-82
2021/01/13 10:07:44;;;;;;;15.93;2.28;;;16.50;56.10;;;;;;6282730;22;20017;-84
2021/01/13 10:10:22;;;;;;;10.05;1.50;;;16.40;56.20;;;;;;6257236;22;20011;-81
2021/01/13 10:12:50;;;;;;;5.45;0.90;;;16.40;56.30;;;;;;6283215;22;20270;-79
2021/01/13 10:15:16;;;;;;;18.15;1.90;;;16.40;56.30;;;;;;6309482;22;20018;-84
2021/01/13 10:17:43;;;;;;;14.90;1.85;;;16.40;56.30;;;;;;6256740;22;20472;-82
2021/01/13 10:20:24;;;;;;;10.50;1.45;;;16.40;56.40;;;;;;6319947;22;20011;-84
2021/01/13 10:23:01;;;;;;;15.32;1.48;;;16.40;56.40;;;;;;6282972;22;20015;-89
2021/01/13 10:25:44;;;;;;;7.60;1.58;;;16.40;56.60;;;;;;6319541;22;20017;-85
2021/01/13 10:28:31;;;;;;;13.52;1.23;;;16.40;56.40;;;;;;6257222;22;20012;-85
2021/01/13 10:30:57;;;;;;;17.38;2.28;;;16.40;56.50;;;;;;6282823;22;20046;-81
2021/01/13 10:33:58;;;;;;;11.68;1.65;;;16.50;56.60;;;;;;6283600;22;20039;-87
2021/01/13 10:36:31;;;;;;;11.18;1.88;;;16.50;56.40;;;;;;6257006;22;20015;-81
2021/01/13 10:39:09;;;;;;;12.15;1.30;;;16.40;54.70;;;;;;6256035;22;20011;-77
2021/01/13 10:41:42;;;;;;;11.55;1.77;;;16.40;54.70;;;;;;6293090;22;20017;-77
2021/01/13 10:44:10;;;;;;;7.18;0.85;;;16.40;55.10;;;;;;6309856;22;20008;-80
2021/01/13 10:58:34;;;;;;;7.88;0.80;;;16.50;54.40;;;;;;6284079;22;20008;-85
2021/01/13 11:11:12;;;;;;;12.82;1.55;;;16.30;54.00;;;;;;6280069;22;20027;-87
2021/01/13 11:13:45;;;;;;;8.65;1.23;;;16.30;53.90;;;;;;6229375;22;20389;-84
2021/01/13 11:20:47;;;;;;;7.07;1.20;;;16.30;52.80;;;;;;6186259;23;20016;-87
2021/01/13 11:23:31;;;;;;;6.72;1.02;;;16.30;53.20;;;;;;6163197;23;20052;-86
2021/01/13 11:26:44;;;;;;;10.07;1.30;;;16.30;53.70;;;;;;6161184;23;20020;-87
2021/01/13 11:29:10;;;;;;;13.75;1.85;;;16.40;53.70;;;;;;6182212;23;20311;-82
2021/01/13 11:31:37;;;;;;;8.73;1.05;;;16.40;54.00;;;;;;6236768;22;20400;-81
2021/01/13 11:34:04;;;;;;;7.45;1.23;;;16.40;53.70;;;;;;6263732;22;20050;-81
2021/01/13 11:36:34;;;;;;;8.65;0.95;;;16.40;54.10;;;;;;6253637;22;20470;-81
2021/01/13 11:39:03;;;;;;;8.65;0.85;;;16.40;54.50;;;;;;6254420;22;20001;-82
2021/01/13 11:41:50;;;;;;;6.47;0.93;;;16.40;54.70;;;;;;6253389;22;20018;-81
2021/01/13 11:44:29;;;;;;;6.75;0.70;;;16.40;54.90;;;;;;6263922;22;20011;-81
2021/01/13 11:47:22;;;;;;;13.13;1.35;;;16.40;54.50;;;;;;6263039;22;20069;-85
2021/01/13 11:50:05;;;;;;;9.00;1.00;;;16.40;54.70;;;;;;6228818;22;20365;-84
2021/01/13 11:52:45;;;;;;;7.22;1.40;;;16.40;54.50;;;;;;6230278;22;20119;-86
2021/01/13 11:55:18;;;;;;;8.98;1.63;;;16.40;54.20;;;;;;6228486;22;20289;-85
2021/01/13 11:57:47;;;;;;;5.63;1.13;;;16.40;53.60;;;;;;6228418;22;20034;-84
2021/01/13 12:00:23;;;;;;;10.65;1.70;;;16.40;53.10;;;;;;6227884;22;20034;-84
2021/01/13 12:03:09;;;;;;;6.47;1.25;;;16.40;53.10;;;;;;6227574;22;20011;-85
2021/01/13 12:05:40;;;;;;;9.05;1.77;;;16.40;53.20;;;;;;6227502;22;20007;-85
2021/01/13 12:08:07;;;;;;;7.82;1.48;;;16.40;53.20;;;;;;6228067;22;20031;-84
2021/01/13 12:10:44;;;;;;;9.55;1.02;;;16.40;53.10;;;;;;6227679;22;20012;-85
2021/01/13 12:13:23;;;;;;;9.10;1.33;;;16.40;53.10;;;;;;6228388;22;20018;-85
2021/01/13 12:16:01;;;;;;;6.80;0.80;;;16.40;53.10;;;;;;6228328;22;20043;-83
2021/01/13 12:18:33;;;;;;;4.43;1.13;;;16.40;53.20;;;;;;6228116;22;20011;-84
2021/01/13 12:21:21;;;;;;;7.07;1.13;;;16.50;53.10;;;;;;6227929;22;20018;-87
2021/01/13 12:23:51;;;;;;;5.82;1.10;;;16.40;53.00;;;;;;6227009;22;20282;-86
2021/01/13 12:26:27;;;;;;;7.28;0.88;;;16.40;53.00;;;;;;6253421;22;20091;-89
2021/01/13 12:28:55;;;;;;;4.15;1.20;;;16.40;53.00;;;;;;6253090;22;20018;-85
2021/01/13 12:31:34;;;;;;;5.45;1.10;;;16.40;52.90;;;;;;6228189;22;20003;-82
2021/01/13 12:34:00;;;;;;;7.13;0.77;;;16.40;52.90;;;;;;6227496;22;20015;-83
2021/01/13 12:36:28;;;;;;;6.82;1.08;;;16.40;52.90;;;;;;6253900;22;20003;-85
2021/01/13 12:38:55;;;;;;;5.57;0.95;;;16.40;52.80;;;;;;6227860;22;20014;-85
2021/01/13 12:41:34;;;;;;;5.65;0.90;;;16.40;52.80;;;;;;6227739;22;20012;-82
2021/01/13 12:44:07;;;;;;;5.47;0.93;;;16.40;52.80;;;;;;6227936;22;20015;-83
2021/01/13 12:46:47;;;;;;;6.28;1.38;;;16.30;53.20;;;;;;6252640;22;20065;-85
2021/01/13 12:49:13;;;;;;;4.60;1.00;;;16.30;52.60;;;;;;6227783;22;20017;-83
2021/01/13 12:51:42;;;;;;;5.72;0.82;;;16.30;52.50;;;;;;6227753;22;20014;-84
2021/01/13 12:54:10;;;;;;;4.68;0.73;;;16.30;52.50;;;;;;6227549;22;20011;-84
2021/01/13 12:56:36;;;;;;;4.93;0.60;;;16.30;52.50;;;;;;6227369;22;20015;-83
2021/01/13 12:59:02;;;;;;;5.53;0.93;;;16.20;52.40;;;;;;6228658;22;20280;-82
2021/01/13 13:01:35;;;;;;;6.80;1.45;;;16.20;52.50;;;;;;6227735;22;20086;-85
2021/01/13 13:04:01;;;;;;;8.20;0.88;;;16.20;52.40;;;;;;6227650;22;20388;-83
2021/01/13 13:06:34;;;;;;;4.57;1.00;;;16.20;52.20;;;;;;6227304;22;20018;-84
2021/01/13 13:09:07;;;;;;;3.08;0.57;;;16.20;52.20;;;;;;6227498;22;20008;-84
2021/01/13 13:11:36;;;;;;;5.33;0.80;;;16.20;52.20;;;;;;6226502;22;20022;-86
2021/01/13 13:14:02;;;;;;;3.58;0.80;;;16.10;52.10;;;;;;6252786;22;20082;-85
2021/01/13 13:16:29;;;;;;;3.22;0.80;;;16.10;52.20;;;;;;6227796;22;20022;-84
2021/01/13 13:18:56;;;;;;;6.65;1.38;;;16.10;52.10;;;;;;6227170;22;20360;-85
2021/01/13 13:21:25;;;;;;;5.22;0.77;;;16.10;52.10;;;;;;6252969;22;20003;-84
2021/01/13 13:23:52;;;;;;;4.35;0.80;;;16.10;52.10;;;;;;6227375;22;20014;-84
2021/01/13 13:26:20;;;;;;;6.30;1.15;;;16.10;52.10;;;;;;6227372;22;20026;-86
2021/01/13 13:28:46;;;;;;;5.90;0.88;;;16.00;52.10;;;;;;6227346;22;20007;-85
2021/01/13 13:31:14;;;;;;;5.60;0.80;;;16.10;52.20;;;;;;6227174;22;20007;-84
2021/01/13 13:33:41;;;;;;;4.05;0.73;;;16.00;52.30;;;;;;6227680;22;20003;-82
2021/01/13 13:36:07;;;;;;;6.30;1.08;;;16.00;52.30;;;;;;6227532;22;20015;-85
2021/01/13 13:38:34;;;;;;;5.75;1.15;;;16.00;52.30;;;;;;6227592;22;20385;-82
2021/01/13 13:41:00;;;;;;;5.43;1.05;;;16.00;52.40;;;;;;6227407;22;20015;-84
2021/01/13 13:43:26;;;;;;;4.35;0.90;;;16.00;52.40;;;;;;6228157;22;20011;-85
2021/01/13 13:45:52;;;;;;;5.35;1.25;;;16.00;52.40;;;;;;6226972;22;20008;-83
2021/01/13 13:48:22;;;;;;;5.30;1.00;;;16.00;52.30;;;;;;6227212;22;20012;-86
2021/01/13 13:50:59;;;;;;;5.72;0.80;;;15.90;52.30;;;;;;6227590;22;20305;-84
2021/01/13 13:53:28;;;;;;;5.35;0.70;;;16.00;52.40;;;;;;6227479;22;20004;-85
2021/01/13 13:55:54;;;;;;;5.80;1.38;;;16.00;52.40;;;;;;6227047;22;20018;-86
2021/01/13 13:58:20;;;;;;;4.22;0.98;;;16.00;52.40;;;;;;6227135;22;20007;-86
2021/01/13 14:00:46;;;;;;;3.60;0.70;;;15.90;52.40;;;;;;6226897;22;20296;-86
2021/01/13 14:03:15;;;;;;;4.10;1.00;;;15.90;52.40;;;;;;6227032;22;20019;-83
2021/01/13 14:05:42;;;;;;;5.72;1.10;;;15.90;52.40;;;;;;6227162;22;20027;-83
2021/01/13 14:08:20;;;;;;;7.55;1.67;;;15.90;52.50;;;;;;6226872;22;20436;-83
2021/01/13 14:14:42;;;;;;;10.05;1.98;;;15.90;53.00;;;;;;6067614;23;20405;-85
2021/01/13 14:17:36;;;;;;;15.02;2.00;;;15.90;53.70;;;;;;6178711;23;20363;-84
2021/01/13 14:20:09;;;;;;;10.90;1.25;;;15.90;54.10;;;;;;6222186;23;20015;-78
2021/01/13 14:22:37;;;;;;;10.55;1.77;;;15.90;54.20;;;;;;6258282;22;20004;-82
2021/01/13 14:25:04;;;;;;;11.13;2.13;;;15.90;54.10;;;;;;6257310;23;20014;-80
2021/01/13 14:27:30;;;;;;;15.48;1.50;;;16.00;54.30;;;;;;6247821;22;20008;-78
2021/01/13 14:29:55;;;;;;;13.48;1.92;;;16.00;54.60;;;;;;6248123;22;20016;-85
2021/01/13 14:32:23;;;;;;;11.13;2.13;;;16.00;54.60;;;;;;6256425;23;20035;-78
2021/01/13 14:34:49;;;;;;;12.15;1.70;;;16.10;54.80;;;;;;6248040;22;20035;-78
2021/01/13 14:37:15;;;;;;;11.68;1.98;;;16.10;54.90;;;;;;6258149;23;20047;-80
2021/01/13 14:39:42;;;;;;;8.80;1.38;;;16.20;55.30;;;;;;6257114;23;20008;-78
2021/01/13 14:42:10;;;;;;;8.50;1.73;;;16.20;55.10;;;;;;6257802;23;20062;-79
2021/01/13 14:44:37;;;;;;;7.15;1.33;;;16.20;55.00;;;;;;6257912;22;20032;-79
2021/01/13 14:47:11;;;;;;;10.75;1.98;;;16.20;55.00;;;;;;6258293;22;20016;-78
2021/01/13 14:49:37;;;;;;;;;;;16.30;55.10;;;;;;6258127;23;20019;-79
2021/01/13 14:52:04;;;;;;;6.32;1.67;;;16.30;55.00;;;;;;6257709;22;20316;-78
2021/01/13 14:54:30;;;;;;;9.32;1.77;;;16.30;55.10;;;;;;6257727;23;20079;-79
2021/01/13 14:56:56;;;;;;;7.00;1.27;;;16.30;55.10;;;;;;6258037;22;20039;-79
2021/01/13 14:59:22;;;;;;;10.05;1.38;;;16.30;55.00;;;;;;6258028;23;20012;-79
2021/01/13 15:01:48;;;;;;;11.40;1.60;;;16.40;55.10;;;;;;6257883;23;20016;-79
2021/01/13 15:04:13;;;;;;;7.50;1.50;;;16.40;55.10;;;;;;6246334;23;20012;-78
2021/01/13 15:06:39;;;;;;;9.73;1.65;;;16.40;55.00;;;;;;6257178;23;20012;-78
2021/01/13 15:09:05;;;;;;;7.97;1.70;;;16.40;55.00;;;;;;6257937;23;20020;-78
2021/01/13 15:11:31;;;;;;;7.90;1.55;;;16.40;55.00;;;;;;6272779;22;20388;-78
2021/01/13 15:13:57;;;;;;;8.63;1.45;;;16.40;54.90;;;;;;6289025;22;20008;-78
2021/01/13 15:16:23;;;;;;;7.57;1.13;;;16.50;54.90;;;;;;6262118;22;20018;-78
2021/01/13 15:18:50;;;;;;;6.45;1.30;;;16.50;55.00;;;;;;6288443;22;20023;-78
2021/01/13 15:21:18;;;;;;;6.35;1.80;;;16.50;55.10;;;;;;6261676;22;20015;-79
2021/01/13 15:23:46;;;;;;;6.30;1.38;;;16.60;55.20;;;;;;6288591;22;20012;-79
2021/01/13 15:26:13;;;;;;;10.07;1.70;;;16.60;55.10;;;;;;6288029;22;20008;-78
2021/01/13 15:28:39;;;;;;;10.77;1.88;;;16.60;55.00;;;;;;6286203;22;20420;-81
2021/01/13 15:31:05;;;;;;;8.93;1.60;;;16.70;54.90;;;;;;6287821;22;20011;-77
2021/01/13 15:33:32;;;;;;;8.43;1.40;;;16.70;54.70;;;;;;6287704;22;20091;-82
2021/01/13 15:36:19;;;;;;;12.57;1.45;;;16.70;54.50;;;;;;6263035;22;20012;-81
2021/01/13 15:38:45;;;;;;;12.07;2.10;;;16.70;54.50;;;;;;6253114;22;20038;-84
2021/01/13 15:41:11;;;;;;;11.73;1.80;;;16.70;55.30;;;;;;6263258;22;20012;-82
2021/01/13 15:43:41;;;;;;;8.05;1.60;;;16.70;54.70;;;;;;6254274;22;20078;-80
2021/01/13 15:46:08;;;;;;;4.88;1.30;;;16.70;54.90;;;;;;6253170;22;20469;-79
2021/01/13 15:48:34;;;;;;;10.98;1.70;;;16.70;55.10;;;;;;6290571;22;20042;-81
2021/01/13 15:51:00;;;;;;;9.00;1.73;;;16.70;55.30;;;;;;6263093;22;20015;-83
2021/01/13 15:53:25;;;;;;;8.50;1.80;;;16.70;55.40;;;;;;6263197;22;20029;-79
2021/01/13 15:55:52;;;;;;;9.40;1.60;;;16.70;55.60;;;;;;6263045;22;20405;-81
2021/01/13 15:58:24;;;;;;;17.95;3.20;;;16.70;55.80;;;;;;6290217;22;20082;-78
2021/01/13 16:00:50;;;;;;;16.52;4.15;;;16.70;56.50;;;;;;6290295;22;20011;-77
2021/01/13 16:03:16;;;;;;;15.35;3.45;;;16.70;56.80;;;;;;6279835;22;20073;-84
2021/01/13 16:05:42;;;;;;;20.38;5.07;;;16.80;57.10;;;;;;6263610;22;20011;-80
2021/01/13 16:08:09;;;;;;;16.80;3.17;;;16.70;57.40;;;;;;6290348;22;20061;-79
2021/01/13 16:10:35;;;;;;;17.30;4.60;;;16.70;57.40;;;;;;6286666;22;20078;-80
2021/01/13 16:13:06;;;;;;;15.60;3.42;;;16.80;57.30;;;;;;6289943;22;20042;-78
2021/01/13 16:15:32;;;;;;;15.43;3.50;;;16.80;57.20;;;;;;6290318;22;20109;-79
2021/01/13 16:17:58;;;;;;;11.18;2.92;;;16.80;57.10;;;;;;6290250;22;20019;-79
2021/01/13 16:20:26;;;;;;;15.82;2.88;;;16.90;57.10;;;;;;6290578;22;20011;-78
2021/01/13 16:23:07;;;;;;;9.05;2.15;;;16.90;57.00;;;;;;6289722;22;20012;-89
2021/01/13 16:25:34;;;;;;;11.45;2.25;;;17.00;56.90;;;;;;6290327;22;20008;-79
2021/01/13 16:28:02;;;;;;;11.45;2.70;;;17.00;57.10;;;;;;6279452;22;20429;-79
2021/01/13 16:30:29;;;;;;;9.23;2.63;;;17.00;57.10;;;;;;6280007;22;20351;-79
2021/01/13 16:33:00;;;;;;;19.38;2.35;;;17.10;57.20;;;;;;6278864;22;20064;-82
2021/01/13 16:35:26;;;;;;;13.30;2.60;;;17.10;57.10;;;;;;6289819;22;20015;-80
2021/01/13 16:37:54;;;;;;;11.55;2.28;;;17.10;57.10;;;;;;6289865;22;20030;-81
2021/01/13 16:40:23;;;;;;;12.15;2.40;;;17.10;56.60;;;;;;6279848;22;20004;-82
2021/01/13 16:42:51;;;;;;;18.75;2.85;;;17.10;54.30;;;;;;6252392;22;20012;-79
2021/01/13 16:45:18;;;;;;;15.52;2.80;;;17.00;55.20;;;;;;6279404;22;20008;-82
2021/01/13 16:47:44;;;;;;;17.40;3.03;;;17.00;56.20;;;;;;6279927;22;20003;-82
2021/01/13 16:50:12;;;;;;;10.77;2.53;;;17.00;56.70;;;;;;6289594;22;20060;-81
2021/01/13 16:52:38;;;;;;;11.80;2.95;;;16.90;57.50;;;;;;6252656;22;20008;-82
2021/01/13 16:55:06;;;;;;;11.15;2.90;;;16.80;57.00;;;;;;6252761;22;20011;-80
2021/01/13 16:57:33;;;;;;;12.65;2.10;;;16.70;57.00;;;;;;6289921;22;20014;-81
2021/01/13 17:00:09;;;;;;;9.55;2.13;;;16.80;57.10;;;;;;6290359;22;20069;-82
2021/01/13 17:02:43;;;;;;;16.05;2.70;;;16.80;57.10;;;;;;6289784;22;20014;-81
2021/01/13 17:05:17;;;;;;;15.38;2.30;;;16.80;57.00;;;;;;6262523;22;20083;-80
2021/01/13 17:07:47;;;;;;;9.82;2.05;;;16.90;57.00;;;;;;6252069;22;20008;-81
2021/01/13 17:10:19;;;;;;;9.48;2.33;;;16.90;56.90;;;;;;6279357;22;20038;-82
2021/01/13 17:12:47;;;;;;;13.95;2.53;;;16.80;56.70;;;;;;6262831;22;20103;-81
2021/01/13 17:15:15;;;;;;;12.60;2.53;;;16.80;56.70;;;;;;6280525;22;20088;-81
2021/01/13 17:17:42;;;;;;;11.52;2.65;;;16.80;56.60;;;;;;6262819;22;20071;-81
2021/01/13 17:20:16;;;;;;;16.38;3.35;;;16.80;56.60;;;;;;6279475;22;20015;-82
2021/01/13 17:22:44;;;;;;;12.80;2.10;;;16.80;56.60;;;;;;6277888;22;20019;-81
2021/01/13 17:25:15;;;;;;;9.18;2.10;;;16.80;57.00;;;;;;6290415;22;20029;-82
2021/01/13 17:27:51;;;;;;;11.10;2.28;;;16.80;56.80;;;;;;6262932;22;20069;-81
2021/01/13 17:30:19;;;;;;;7.47;1.80;;;16.80;56.50;;;;;;6262976;22;20015;-81
2021/01/13 17:32:45;;;;;;;7.95;1.90;;;16.80;56.40;;;;;;6252130;22;20012;-81
2021/01/13 17:35:17;;;;;;;10.02;2.20;;;16.80;56.30;;;;;;6288372;22;20015;-81
2021/01/13 17:37:45;;;;;;;9.15;2.30;;;16.90;56.20;;;;;;6289556;22;20388;-81
2021/01/13 17:40:18;;;;;;;10.90;2.13;;;16.80;56.00;;;;;;6262387;22;20019;-81
2021/01/13 17:42:55;;;;;;;8.48;2.03;;;16.80;55.90;;;;;;6262232;22;20011;-81
2021/01/13 17:45:22;;;;;;;8.32;2.17;;;16.80;55.80;;;;;;6279305;22;20015;-80
2021/01/13 17:47:49;;;;;;;7.28;1.98;;;16.80;55.90;;;;;;6278730;22;20007;-82
2021/01/13 17:50:18;;;;;;;7.75;1.77;;;16.80;55.80;;;;;;6252525;22;20008;-82
2021/01/13 17:52:46;;;;;;;6.63;1.90;;;16.80;55.60;;;;;;6279069;22;20401;-82
2021/01/13 17:55:15;;;;;;;6.80;1.85;;;16.70;55.60;;;;;;6252524;22;20023;-82
2021/01/13 17:57:41;;;;;;;6.03;1.70;;;16.70;55.60;;;;;;6289730;22;20018;-82
2021/01/13 18:00:10;;;;;;;6.47;1.60;;;16.70;55.60;;;;;;6289205;22;20012;-82
2021/01/13 18:02:36;;;;;;;6.93;1.80;;;16.70;55.50;;;;;;6278905;22;20008;-81
2021/01/13 18:05:11;;;;;;;4.80;1.60;;;16.70;55.50;;;;;;6252480;22;20015;-81
2021/01/13 18:07:38;;;;;;;8.40;2.15;;;16.70;55.30;;;;;;6252797;22;20022;-81
2021/01/13 18:10:09;;;;;;;9.70;2.40;;;16.70;55.30;;;;;;6278727;22;20015;-81
2021/01/13 18:12:36;;;;;;;6.60;1.38;;;16.60;55.30;;;;;;6252029;22;20008;-82
2021/01/13 18:15:04;;;;;;;7.50;1.98;;;16.60;55.20;;;;;;6279231;22;20019;-83
2021/01/13 18:17:30;;;;;;;4.75;1.25;;;16.60;55.10;;;;;;6252534;22;20008;-81
2021/01/13 18:19:56;;;;;;;6.97;1.67;;;16.60;55.10;;;;;;6278812;22;20022;-82
2021/01/13 18:22:22;;;;;;;5.63;1.45;;;16.50;54.90;;;;;;6278738;22;20015;-81
2021/01/13 18:24:49;;;;;;;6.53;1.70;;;16.50;54.90;;;;;;6252608;22;20012;-82
2021/01/13 18:27:15;;;;;;;7.07;1.83;;;16.40;54.70;;;;;;6252338;22;20033;-81
2021/01/13 18:29:41;;;;;;;5.90;1.63;;;16.40;54.60;;;;;;6279075;22;20019;-81
2021/01/13 18:32:07;;;;;;;5.78;1.40;;;16.40;54.50;;;;;;6262060;22;20007;-83
2021/01/13 18:34:33;;;;;;;9.10;2.00;;;16.40;54.60;;;;;;6262685;22;20037;-83
2021/01/13 18:37:00;;;;;;;6.00;1.80;;;16.40;54.50;;;;;;6278725;22;20409;-81
2021/01/13 18:39:26;;;;;;;8.32;1.60;;;16.40;54.50;;;;;;6289082;22;20397;-83
2021/01/13 18:41:52;;;;;;;6.85;1.63;;;16.30;54.40;;;;;;6288513;22;20050;-83
2021/01/13 18:44:18;;;;;;;4.72;1.27;;;16.30;54.30;;;;;;6251226;22;20030;-82
2021/01/13 18:46:48;;;;;;;5.95;1.23;;;16.30;54.40;;;;;;6288534;22;20008;-81
2021/01/13 18:49:16;;;;;;;3.72;1.30;;;16.30;54.30;;;;;;6288691;22;20084;-85
2021/01/13 18:51:45;;;;;;;5.28;1.25;;;16.30;54.20;;;;;;6226797;22;20007;-84
2021/01/13 18:57:08;;;;;;;10.45;1.95;;;16.30;54.10;;;;;;6221297;22;20011;-86
2021/01/13 18:59:37;;;;;;;10.77;1.60;;;16.30;53.40;;;;;;6226762;22;20014;-89
2021/01/13 19:02:04;;;;;;;9.18;2.10;;;16.20;52.90;;;;;;6251003;22;20014;-85
2021/01/13 19:04:35;;;;;;;5.20;1.27;;;16.10;53.00;;;;;;6262891;22;20008;-90
2021/01/13 19:07:25;;;;;;;7.72;2.30;;;16.10;53.40;;;;;;6251646;22;20011;-88
2021/01/13 19:10:03;;;;;;;6.80;1.42;;;16.10;53.50;;;;;;6254002;22;20077;-86
2021/01/13 19:12:29;;;;;;;9.30;1.20;;;16.00;53.60;;;;;;6228501;22;20091;-83
2021/01/13 19:14:55;;;;;;;5.72;1.35;;;15.90;53.50;;;;;;6290693;22;20017;-82
2021/01/13 19:17:22;;;;;;;6.00;1.27;;;15.90;53.80;;;;;;6254001;22;20082;-83
2021/01/13 19:19:50;;;;;;;7.20;1.38;;;15.90;53.90;;;;;;6263690;22;20332;-82
2021/01/13 19:22:16;;;;;;;7.25;0.85;;;15.90;53.90;;;;;;6253056;22;20003;-82
2021/01/13 19:24:42;;;;;;;4.72;1.33;;;16.00;54.00;;;;;;6280070;22;20007;-80
2021/01/13 19:27:08;;;;;;;11.55;1.15;;;15.90;53.80;;;;;;6280103;22;20012;-80
2021/01/13 19:29:35;;;;;;;6.13;1.30;;;15.90;53.50;;;;;;6289600;22;20011;-82
2021/01/13 19:32:09;;;;;;;8.05;1.38;;;15.90;48.20;;;;;;6263190;22;20023;-83
2021/01/13 19:34:35;;;;;;;7.97;1.30;;;15.60;48.60;;;;;;6254105;22;20008;-79
2021/01/13 19:37:02;;;;;;;6.05;1.30;;;15.50;50.20;;;;;;6263541;22;20008;-85
2021/01/13 19:39:28;;;;;;;4.80;1.05;;;15.50;50.70;;;;;;6262728;22;20023;-85
2021/01/13 19:41:57;;;;;;;5.22;1.25;;;15.50;50.90;;;;;;6227954;22;20014;-83
2021/01/13 19:44:23;;;;;;;5.30;1.25;;;15.40;51.10;;;;;;6253005;22;20079;-84
2021/01/13 19:46:54;;;;;;;6.68;1.10;;;15.40;51.40;;;;;;6227642;22;20309;-84
2021/01/13 19:49:21;;;;;;;8.07;1.10;;;15.40;51.60;;;;;;6253575;22;20019;-86
2021/01/13 19:51:51;;;;;;;5.70;1.23;;;15.40;52.10;;;;;;6252598;22;20428;-85